Time;durP1;ratioP1;P1;durP2;ratioP2;P2;SDS_P1;SDS_P2;PMS_P1;PMS_P2;Temp;Humidity;BMP_temperature;BMP_pressure;BME280_temperature;BME280_humidity;BME280_pressure;Samples;Min_cycle;Max_cycle;Signal;HPM_P1;HPM_P2
2022/12/14 00:01:59;;;;;;;64.03;23.77;;;-4.50;99.90;;;;;;5114250;28;20043;-75
2022/12/14 00:04:24;;;;;;;54.42;21.13;;;-4.50;99.90;;;;;;5096275;28;20048;-76
2022/12/14 00:06:50;;;;;;;60.00;23.40;;;-4.50;99.90;;;;;;5113073;28;20118;-75
2022/12/14 00:09:16;;;;;;;57.40;21.73;;;-4.50;99.90;;;;;;5112692;28;20130;-75
2022/12/14 00:11:42;;;;;;;60.40;21.83;;;-4.60;99.90;;;;;;5096227;28;20043;-76
2022/12/14 00:14:08;;;;;;;61.72;23.08;;;-4.60;99.90;;;;;;5112928;28;20394;-77
2022/12/14 00:16:34;;;;;;;56.85;20.73;;;-4.60;99.90;;;;;;5112777;28;20535;-75
2022/12/14 00:19:01;;;;;;;61.10;22.48;;;-4.60;99.90;;;;;;5095242;28;20064;-75
2022/12/14 00:21:28;;;;;;;56.47;21.35;;;-4.70;99.90;;;;;;5113457;28;20048;-75
2022/12/14 00:23:54;;;;;;;55.55;21.67;;;-4.70;99.90;;;;;;5113670;28;20083;-75
2022/12/14 00:26:25;;;;;;;57.25;22.33;;;-4.70;99.90;;;;;;5112490;28;20044;-76
2022/12/14 00:28:53;;;;;;;58.63;22.98;;;-4.70;99.90;;;;;;5096050;28;20436;-76
2022/12/14 00:31:21;;;;;;;60.58;22.50;;;-4.70;99.90;;;;;;5113128;28;20388;-76
2022/12/14 00:33:47;;;;;;;63.72;22.48;;;-4.70;99.90;;;;;;5113531;28;20123;-76
2022/12/14 00:36:13;;;;;;;65.33;24.73;;;-4.70;99.90;;;;;;5112653;28;20373;-79
2022/12/14 00:38:39;;;;;;;60.97;21.63;;;-4.70;99.90;;;;;;5113399;28;20088;-75
2022/12/14 00:41:06;;;;;;;52.60;21.02;;;-4.70;99.90;;;;;;5113346;28;20048;-75
2022/12/14 00:43:32;;;;;;;53.10;20.52;;;-4.80;99.90;;;;;;5095175;28;20040;-75
2022/12/14 00:45:57;;;;;;;57.42;21.35;;;-4.80;99.90;;;;;;5112696;28;20407;-75
2022/12/14 00:48:24;;;;;;;55.58;21.10;;;-4.80;99.90;;;;;;5112189;28;20119;-75
2022/12/14 00:50:52;;;;;;;56.28;21.35;;;-4.80;99.90;;;;;;5113026;28;20479;-75
2022/12/14 00:53:17;;;;;;;;;;;-4.80;99.90;;;;;;5113977;28;20144;-75
2022/12/14 00:55:45;;;;;;;58.63;19.67;;;-4.90;99.90;;;;;;5113100;28;20018;-76
2022/12/14 00:58:13;;;;;;;49.63;20.20;;;-4.90;99.90;;;;;;5112838;28;20050;-75
2022/12/14 01:00:39;;;;;;;54.30;20.33;;;-4.80;99.90;;;;;;5095486;28;20466;-74
2022/12/14 01:03:11;;;;;;;54.25;20.15;;;-4.90;99.90;;;;;;5112648;28;20455;-75
2022/12/14 01:05:38;;;;;;;51.40;19.23;;;-4.80;99.90;;;;;;5078915;28;20047;-76
2022/12/14 01:08:04;;;;;;;51.20;19.55;;;-4.80;99.90;;;;;;5112900;28;20086;-77
2022/12/14 01:10:30;;;;;;;53.92;18.77;;;-4.80;99.90;;;;;;5111823;28;20051;-75
2022/12/14 01:12:56;;;;;;;52.10;18.98;;;-4.80;99.90;;;;;;5113071;28;20130;-76
2022/12/14 01:15:22;;;;;;;51.97;19.10;;;-4.80;99.90;;;;;;5094860;28;20083;-76
2022/12/14 01:17:49;;;;;;;53.80;19.30;;;-4.80;99.90;;;;;;5114636;27;20107;-75
2022/12/14 01:20:15;;;;;;;54.72;18.73;;;-4.80;99.90;;;;;;5094349;28;20044;-75
2022/12/14 01:22:41;;;;;;;54.75;19.45;;;-4.80;99.90;;;;;;5095437;28;20040;-75
2022/12/14 01:25:08;;;;;;;49.92;18.25;;;-4.80;99.90;;;;;;5094495;28;20408;-74
2022/12/14 01:27:34;;;;;;;56.03;19.10;;;-4.80;99.90;;;;;;5111208;28;20044;-75
2022/12/14 01:30:00;;;;;;;51.20;19.25;;;-4.80;99.90;;;;;;5111716;28;20047;-74
2022/12/14 01:32:26;;;;;;;54.97;19.23;;;-4.80;99.90;;;;;;5111371;28;20506;-75
2022/12/14 01:34:52;;;;;;;65.70;21.48;;;-4.80;99.90;;;;;;5116974;28;20035;-76
2022/12/14 01:37:18;;;;;;;58.03;20.92;;;-4.90;99.90;;;;;;5116952;28;20429;-77
2022/12/14 01:39:44;;;;;;;60.80;20.38;;;-4.90;99.90;;;;;;5115076;28;20135;-75
2022/12/14 01:42:14;;;;;;;55.75;19.67;;;-4.80;99.90;;;;;;5098964;28;20365;-76
2022/12/14 01:44:42;;;;;;;57.78;20.52;;;-5.00;99.90;;;;;;5116552;28;20547;-75
2022/12/14 01:47:26;;;;;;;55.20;20.02;;;-5.00;99.90;;;;;;5116128;28;20100;-75
2022/12/14 01:49:56;;;;;;;53.53;19.77;;;-5.00;99.90;;;;;;5116847;28;20040;-76
2022/12/14 01:52:33;;;;;;;53.58;19.20;;;-5.10;99.90;;;;;;5115882;28;20361;-75
2022/12/14 01:55:09;;;;;;;52.20;19.55;;;-5.20;99.90;;;;;;5117322;28;20051;-75
2022/12/14 01:57:41;;;;;;;49.97;17.92;;;-5.20;99.90;;;;;;5115553;28;20100;-76
2022/12/14 02:00:09;;;;;;;50.15;17.00;;;-5.30;99.90;;;;;;5116250;28;20452;-77
2022/12/14 02:02:37;;;;;;;47.65;18.35;;;-5.30;99.90;;;;;;5116573;28;20077;-75
2022/12/14 02:05:05;;;;;;;50.67;18.20;;;-5.30;99.90;;;;;;5116578;28;20122;-75
2022/12/14 02:07:31;;;;;;;45.88;17.95;;;-5.40;99.90;;;;;;5098595;28;20096;-75
2022/12/14 02:10:02;;;;;;;48.38;18.10;;;-5.40;99.90;;;;;;5116765;28;20386;-76
2022/12/14 02:12:32;;;;;;;49.33;17.67;;;-5.50;99.90;;;;;;5098569;28;20048;-73
2022/12/14 02:15:00;;;;;;;55.63;17.83;;;-5.50;99.90;;;;;;5099211;28;20144;-78
2022/12/14 02:17:27;;;;;;;43.97;16.30;;;-5.60;99.90;;;;;;5115872;28;20525;-76
2022/12/14 02:19:56;;;;;;;53.22;19.40;;;-5.60;99.90;;;;;;5097881;28;20056;-75
2022/12/14 02:22:47;;;;;;;43.50;17.08;;;-5.60;99.90;;;;;;5116085;28;20047;-76
2022/12/14 02:25:48;;;;;;;48.25;16.55;;;-5.70;99.90;;;;;;5116173;28;20048;-74
2022/12/14 02:28:29;;;;;;;48.20;16.15;;;-5.70;99.90;;;;;;5114466;28;20043;-75
2022/12/14 02:31:09;;;;;;;40.22;15.77;;;-5.70;99.90;;;;;;5115028;28;20052;-75
2022/12/14 02:33:42;;;;;;;45.08;16.05;;;-5.70;99.90;;;;;;5116148;27;20479;-75
2022/12/14 02:36:23;;;;;;;40.65;16.13;;;-5.70;99.90;;;;;;5115858;28;20083;-75
2022/12/14 02:39:05;;;;;;;42.50;16.58;;;-5.70;99.90;;;;;;5115674;28;20055;-76
2022/12/14 02:41:37;;;;;;;46.17;17.08;;;-5.80;99.90;;;;;;5115526;28;20134;-75
2022/12/14 02:44:30;;;;;;;40.25;15.27;;;-5.70;99.90;;;;;;5114444;28;20039;-76
2022/12/14 02:47:10;;;;;;;40.78;15.30;;;-5.80;99.90;;;;;;5116414;28;20043;-75
2022/12/14 02:50:05;;;;;;;43.15;14.52;;;-5.80;99.90;;;;;;5115771;28;20059;-76
2022/12/14 02:53:03;;;;;;;38.78;14.65;;;-5.80;99.90;;;;;;5114366;28;20048;-76
2022/12/14 02:55:40;;;;;;;42.35;14.27;;;-5.80;99.90;;;;;;5114475;28;20470;-75
2022/12/14 02:58:17;;;;;;;41.70;14.32;;;-5.90;99.90;;;;;;5115499;28;20139;-75
2022/12/14 03:00:43;;;;;;;38.55;14.52;;;-5.90;99.90;;;;;;5114917;28;20048;-75
2022/12/14 03:03:09;;;;;;;42.30;14.57;;;-5.90;99.90;;;;;;5115624;28;20137;-75
2022/12/14 03:05:35;;;;;;;39.80;13.80;;;-5.90;99.90;;;;;;5114387;28;20051;-75
2022/12/14 03:08:23;;;;;;;39.25;15.00;;;-5.90;99.90;;;;;;5097643;28;20043;-75
2022/12/14 03:10:56;;;;;;;41.03;14.07;;;-5.90;99.90;;;;;;5111455;28;20048;-76
2022/12/14 03:13:57;;;;;;;38.45;13.93;;;-6.00;99.90;;;;;;5097502;28;20101;-76
2022/12/14 03:16:35;;;;;;;36.97;13.75;;;-6.00;99.90;;;;;;5115581;28;20047;-76
2022/12/14 03:19:16;;;;;;;39.33;13.68;;;-6.00;99.90;;;;;;5116314;27;20056;-76
2022/12/14 03:21:53;;;;;;;38.20;14.05;;;-6.10;99.90;;;;;;5117559;27;20108;-76
2022/12/14 03:24:27;;;;;;;36.67;12.75;;;-6.10;99.90;;;;;;5117041;27;20069;-76
2022/12/14 03:27:00;;;;;;;36.65;13.15;;;-6.10;99.90;;;;;;5100486;27;20051;-76
2022/12/14 03:29:29;;;;;;;39.42;13.07;;;-6.20;99.90;;;;;;5101093;27;20122;-76
2022/12/14 03:31:58;;;;;;;43.67;13.82;;;-6.10;99.90;;;;;;5118095;27;20504;-76
2022/12/14 03:34:51;;;;;;;34.80;13.75;;;-6.20;99.90;;;;;;5135753;27;20109;-76
2022/12/14 03:37:40;;;;;;;39.08;13.38;;;-6.20;99.90;;;;;;5135366;27;20043;-76
2022/12/14 03:40:10;;;;;;;40.63;14.20;;;-6.20;99.90;;;;;;5134928;27;20082;-75
2022/12/14 03:43:03;;;;;;;39.30;14.18;;;-6.30;99.90;;;;;;5135399;27;20104;-74
2022/12/14 03:45:41;;;;;;;40.55;14.80;;;-6.20;99.90;;;;;;5117027;27;20399;-74
2022/12/14 03:48:18;;;;;;;40.67;14.52;;;-6.30;99.90;;;;;;5117430;27;20390;-74
2022/12/14 03:50:48;;;;;;;43.20;14.17;;;-6.30;99.90;;;;;;5135433;27;20050;-75
2022/12/14 03:53:40;;;;;;;40.65;13.88;;;-6.30;99.90;;;;;;5135190;27;20505;-75
2022/12/14 03:56:40;;;;;;;46.72;15.38;;;-6.30;99.90;;;;;;5099364;27;20054;-75
2022/12/14 03:59:21;;;;;;;44.22;16.58;;;-6.30;99.90;;;;;;5117122;27;20128;-75
2022/12/14 04:01:54;;;;;;;44.70;14.93;;;-6.30;99.90;;;;;;5134736;27;20149;-75
2022/12/14 04:04:46;;;;;;;44.17;15.15;;;-6.30;99.90;;;;;;5135249;27;20039;-76
2022/12/14 04:07:20;;;;;;;43.15;15.02;;;-6.20;99.90;;;;;;5135025;27;20051;-77
2022/12/14 04:09:51;;;;;;;48.10;16.15;;;-6.30;99.90;;;;;;5117128;27;20043;-76
2022/12/14 04:21:14;;;;;;;44.75;15.00;;;-6.20;99.90;;;;;;5115854;27;20058;-76
2022/12/14 04:26:48;;;;;;;36.15;12.95;;;-6.20;99.90;;;;;;5117412;27;20047;-77
2022/12/14 04:32:14;;;;;;;45.53;14.40;;;-6.20;99.90;;;;;;5134806;27;20103;-74
2022/12/14 04:34:43;;;;;;;42.90;13.50;;;-6.20;99.90;;;;;;5137507;27;20126;-74
2022/12/14 04:37:13;;;;;;;47.85;15.52;;;-6.20;99.90;;;;;;5137394;27;20051;-75
2022/12/14 04:39:52;;;;;;;45.33;15.40;;;-6.20;99.90;;;;;;5137775;27;20095;-78
2022/12/14 04:42:23;;;;;;;44.58;14.38;;;-6.20;99.90;;;;;;5138266;27;20103;-75
2022/12/14 04:44:53;;;;;;;52.25;15.55;;;-6.20;99.90;;;;;;5119199;27;20043;-73
2022/12/14 04:47:22;;;;;;;51.97;17.77;;;-6.20;99.90;;;;;;5137554;27;20046;-80
2022/12/14 04:50:11;;;;;;;52.05;16.85;;;-6.20;99.90;;;;;;5138038;27;20126;-75
2022/12/14 04:52:44;;;;;;;54.17;18.63;;;-6.30;99.90;;;;;;5138531;27;20054;-74
2022/12/14 04:55:24;;;;;;;54.58;17.50;;;-6.30;99.90;;;;;;5120486;27;20057;-75
2022/12/14 04:58:12;;;;;;;39.92;14.60;;;-6.30;99.90;;;;;;5139108;27;20046;-75
2022/12/14 05:00:51;;;;;;;45.65;14.10;;;-6.30;99.90;;;;;;5103716;27;20051;-75
2022/12/14 05:03:29;;;;;;;43.10;14.50;;;-6.30;99.90;;;;;;5139236;27;20076;-76
2022/12/14 05:06:03;;;;;;;47.70;15.32;;;-6.30;99.90;;;;;;5120758;27;20054;-79
2022/12/14 05:08:29;;;;;;;41.10;14.45;;;-6.30;99.90;;;;;;5138299;27;20047;-76
2022/12/14 05:11:10;;;;;;;50.40;15.80;;;-6.30;99.90;;;;;;5139767;27;20046;-76
2022/12/14 05:13:41;;;;;;;45.50;14.35;;;-6.30;99.90;;;;;;5138758;27;20103;-75
2022/12/14 05:16:07;;;;;;;44.17;13.38;;;-6.40;99.90;;;;;;5119663;27;20070;-74
2022/12/14 05:18:36;;;;;;;42.13;14.40;;;-6.40;99.90;;;;;;5103798;27;20077;-75
2022/12/14 05:21:02;;;;;;;47.75;15.05;;;-6.40;99.90;;;;;;5138415;27;20104;-74
2022/12/14 05:23:27;;;;;;;44.20;14.30;;;-6.50;99.90;;;;;;5139059;27;20047;-78
2022/12/14 05:25:53;;;;;;;47.25;16.15;;;-6.50;99.90;;;;;;5102666;28;20047;-79
2022/12/14 05:28:19;;;;;;;44.35;15.80;;;-6.50;99.90;;;;;;5137113;28;20460;-75
2022/12/14 05:30:45;;;;;;;38.53;14.02;;;-6.50;99.90;;;;;;5085572;28;20466;-76
2022/12/14 05:33:18;;;;;;;39.80;14.00;;;-6.50;99.90;;;;;;5137022;28;20049;-75
2022/12/14 05:35:44;;;;;;;48.42;15.13;;;-6.50;99.90;;;;;;5102448;28;20055;-75
2022/12/14 05:38:11;;;;;;;40.80;13.77;;;-6.50;99.90;;;;;;5102561;28;20043;-75
2022/12/14 05:40:38;;;;;;;;;;;-6.50;99.90;;;;;;5119796;28;20043;-76
2022/12/14 05:43:09;;;;;;;47.33;13.33;;;-6.50;99.90;;;;;;5137075;28;19989;-78
2022/12/14 05:45:35;;;;;;;42.92;14.10;;;-6.50;99.90;;;;;;5102821;28;20451;-77
2022/12/14 05:48:01;;;;;;;43.15;15.50;;;-6.50;99.90;;;;;;5120987;28;20063;-77
2022/12/14 05:50:27;;;;;;;43.22;14.50;;;-6.50;99.90;;;;;;5104773;28;20139;-75
2022/12/14 05:52:54;;;;;;;44.88;13.85;;;-6.60;99.90;;;;;;5102660;28;20042;-76
2022/12/14 05:55:20;;;;;;;;;;;-6.50;99.90;;;;;;5101471;28;20044;-77
2022/12/14 05:57:46;;;;;;;42.08;14.43;;;-6.50;99.90;;;;;;5136277;28;19926;-78
2022/12/14 06:00:12;;;;;;;43.35;13.70;;;-6.60;99.90;;;;;;5119010;28;20039;-79
2022/12/14 06:02:38;;;;;;;41.13;14.13;;;-6.40;99.90;;;;;;5137349;28;20118;-78
2022/12/14 06:05:04;;;;;;;42.22;13.77;;;-6.50;99.90;;;;;;5103750;28;20522;-77
2022/12/14 06:07:30;;;;;;;38.15;13.13;;;-6.50;99.90;;;;;;5101317;28;20050;-77
2022/12/14 06:09:55;;;;;;;42.97;14.48;;;-6.50;99.90;;;;;;5101266;28;20063;-78
2022/12/14 06:12:21;;;;;;;43.58;13.95;;;-6.50;99.90;;;;;;5101951;28;20103;-76
2022/12/14 06:14:47;;;;;;;55.33;16.42;;;-6.50;99.90;;;;;;5102128;28;20153;-77
2022/12/14 06:17:13;;;;;;;58.50;16.70;;;-6.50;99.90;;;;;;5102034;28;20112;-77
2022/12/14 06:19:39;;;;;;;49.30;16.80;;;-6.40;99.90;;;;;;5121298;27;20059;-77
2022/12/14 06:22:04;;;;;;;49.08;15.27;;;-6.60;99.90;;;;;;5105046;27;20486;-77
2022/12/14 06:24:30;;;;;;;44.97;14.48;;;-6.50;99.90;;;;;;5122974;27;20047;-78
2022/12/14 06:26:59;;;;;;;43.60;14.18;;;-6.50;99.90;;;;;;5121217;27;20089;-81
2022/12/14 06:29:25;;;;;;;45.60;14.05;;;-6.60;99.90;;;;;;5122501;27;20085;-77
2022/12/14 06:31:50;;;;;;;47.45;14.07;;;-6.50;99.90;;;;;;5120125;27;20047;-78
2022/12/14 06:34:17;;;;;;;47.33;15.75;;;-6.50;99.90;;;;;;5103367;27;20401;-77
2022/12/14 06:36:45;;;;;;;46.90;15.30;;;-6.50;99.90;;;;;;5120601;27;20043;-77
2022/12/14 06:39:14;;;;;;;45.47;14.95;;;-6.50;99.90;;;;;;5120643;27;20062;-77
2022/12/14 06:41:39;;;;;;;47.72;14.70;;;-6.50;99.90;;;;;;5138114;27;20039;-77
2022/12/14 06:44:08;;;;;;;45.03;14.23;;;-6.50;99.90;;;;;;5119584;27;20050;-77
2022/12/14 06:46:35;;;;;;;48.95;13.98;;;-6.60;99.90;;;;;;5118617;27;20070;-77
2022/12/14 06:49:01;;;;;;;46.95;15.52;;;-6.60;99.90;;;;;;5084383;27;20043;-78
2022/12/14 06:51:27;;;;;;;47.73;13.73;;;-6.60;99.90;;;;;;5136990;27;20437;-77
2022/12/14 06:53:54;;;;;;;39.55;12.85;;;-6.60;99.90;;;;;;5101332;27;20100;-77
2022/12/14 06:56:22;;;;;;;43.55;14.23;;;-6.60;99.90;;;;;;5136923;27;20051;-77
2022/12/14 06:58:48;;;;;;;39.90;12.57;;;-6.60;99.90;;;;;;5101305;27;20059;-77
2022/12/14 07:01:16;;;;;;;42.10;13.55;;;-6.60;99.90;;;;;;5136343;27;20047;-77
2022/12/14 07:03:46;;;;;;;44.20;14.65;;;-6.60;99.90;;;;;;5136907;27;20049;-78
2022/12/14 07:06:11;;;;;;;43.33;14.80;;;-6.60;99.90;;;;;;5100912;27;20043;-78
2022/12/14 07:08:38;;;;;;;40.63;14.00;;;-6.70;99.90;;;;;;5135948;27;20126;-77
2022/12/14 07:11:07;;;;;;;39.90;13.93;;;-6.70;99.90;;;;;;5117855;27;20192;-76
2022/12/14 07:13:33;;;;;;;40.55;13.40;;;-6.70;99.90;;;;;;5136737;27;20383;-76
2022/12/14 07:16:00;;;;;;;47.22;14.88;;;-6.70;99.90;;;;;;5118087;27;20487;-76
2022/12/14 07:18:26;;;;;;;47.08;14.95;;;-6.60;99.90;;;;;;5117637;27;20065;-75
2022/12/14 07:20:56;;;;;;;47.73;16.37;;;-6.70;99.90;;;;;;5135941;27;20055;-77
2022/12/14 07:23:23;;;;;;;45.65;15.38;;;-6.70;99.90;;;;;;5117268;27;20058;-75
2022/12/14 07:25:49;;;;;;;41.88;15.40;;;-6.70;99.90;;;;;;5117716;27;20061;-76
2022/12/14 07:28:15;;;;;;;42.20;14.68;;;-6.70;99.90;;;;;;5136110;27;20094;-76
2022/12/14 07:30:41;;;;;;;45.40;15.38;;;-6.70;99.90;;;;;;5082757;27;20047;-78
2022/12/14 07:33:06;;;;;;;43.88;13.98;;;-6.70;99.90;;;;;;5117870;27;20047;-78
2022/12/14 07:35:32;;;;;;;41.80;14.48;;;-6.70;99.90;;;;;;5100331;27;20094;-77
2022/12/14 07:37:58;;;;;;;41.92;12.70;;;-6.70;99.90;;;;;;5116972;27;20058;-75
2022/12/14 07:40:23;;;;;;;38.55;13.52;;;-6.70;99.90;;;;;;5100011;27;20043;-75
2022/12/14 07:42:49;;;;;;;45.03;15.82;;;-6.70;99.90;;;;;;5116767;27;20130;-76
2022/12/14 07:45:15;;;;;;;49.13;17.10;;;-6.70;99.90;;;;;;5116942;27;20479;-78
2022/12/14 07:47:41;;;;;;;62.35;20.55;;;-6.70;99.90;;;;;;5117054;27;20047;-76
2022/12/14 07:50:07;;;;;;;54.42;19.52;;;-6.70;99.90;;;;;;5099969;27;20046;-76
2022/12/14 07:52:33;;;;;;;71.03;26.90;;;-6.80;99.90;;;;;;5135146;27;20082;-76
2022/12/14 07:54:59;;;;;;;59.75;20.65;;;-6.70;99.90;;;;;;5116398;27;20082;-79
2022/12/14 07:57:24;;;;;;;46.80;17.13;;;-6.80;99.90;;;;;;5116378;27;20043;-76
2022/12/14 07:59:50;;;;;;;50.90;17.40;;;-6.80;99.90;;;;;;5116625;27;20043;-77
2022/12/14 08:02:16;;;;;;;49.17;18.85;;;-6.80;99.90;;;;;;5082610;27;20047;-76
2022/12/14 08:04:42;;;;;;;55.30;20.00;;;-6.80;99.90;;;;;;5116671;27;20061;-77
2022/12/14 08:07:08;;;;;;;44.60;16.60;;;-6.80;99.90;;;;;;5099615;27;20254;-79
2022/12/14 08:09:33;;;;;;;43.70;14.50;;;-6.90;99.90;;;;;;5135244;27;20355;-77
2022/12/14 08:11:59;;;;;;;40.55;15.05;;;-6.90;99.90;;;;;;5134928;27;20494;-77
2022/12/14 08:14:28;;;;;;;41.33;14.60;;;-6.90;99.90;;;;;;5134454;27;20506;-77
2022/12/14 08:16:53;;;;;;;42.72;14.88;;;-6.90;99.90;;;;;;5116545;27;20055;-76
2022/12/14 08:19:19;;;;;;;44.60;14.98;;;-6.90;99.90;;;;;;5099676;27;20047;-77
2022/12/14 08:21:45;;;;;;;40.53;13.93;;;-6.90;99.90;;;;;;5098316;27;20062;-77
2022/12/14 08:24:12;;;;;;;44.58;14.10;;;-6.90;99.90;;;;;;5116141;27;20043;-77
2022/12/14 08:26:39;;;;;;;43.58;13.10;;;-6.90;99.90;;;;;;5116135;27;20043;-77
2022/12/14 08:29:05;;;;;;;48.42;14.27;;;-6.80;99.90;;;;;;5099378;27;20042;-77
2022/12/14 08:31:31;;;;;;;46.30;15.15;;;-6.80;99.90;;;;;;5134691;27;20062;-78
2022/12/14 08:33:58;;;;;;;52.00;15.23;;;-6.70;99.90;;;;;;5115985;27;20054;-77
2022/12/14 08:36:31;;;;;;;38.70;12.05;;;-6.70;99.90;;;;;;5116120;27;20050;-76
2022/12/14 08:38:59;;;;;;;40.33;13.75;;;-6.60;99.90;;;;;;5115541;27;20103;-77
2022/12/14 08:41:26;;;;;;;48.95;17.27;;;-6.50;99.90;;;;;;5133446;27;20491;-77
2022/12/14 08:43:55;;;;;;;57.60;22.83;;;-6.40;99.90;;;;;;5133990;27;20049;-76
2022/12/14 08:46:21;;;;;;;52.60;21.20;;;-6.40;99.90;;;;;;5098445;27;20082;-76
2022/12/14 08:48:50;;;;;;;29.52;7.05;;;-6.30;99.90;;;;;;5098974;27;20114;-76
2022/12/14 08:51:16;;;;;;;55.67;22.77;;;-6.20;99.90;;;;;;5134422;27;20047;-76
2022/12/14 08:53:42;;;;;;;61.75;26.05;;;-6.20;99.90;;;;;;5098775;27;20055;-76
2022/12/14 08:56:10;;;;;;;50.60;18.45;;;-6.20;99.90;;;;;;5115744;27;20084;-77
2022/12/14 08:58:37;;;;;;;52.42;19.27;;;-6.20;99.90;;;;;;5115612;27;20047;-76
2022/12/14 09:01:05;;;;;;;42.08;16.05;;;-6.20;99.90;;;;;;5098252;27;20089;-77
2022/12/14 09:03:31;;;;;;;51.15;18.02;;;-6.10;99.90;;;;;;5115406;27;20093;-77
2022/12/14 09:06:01;;;;;;;40.03;15.27;;;-6.10;99.90;;;;;;5115659;27;20078;-77
2022/12/14 09:08:26;;;;;;;44.80;16.05;;;-6.00;99.90;;;;;;5115112;28;20043;-78
2022/12/14 09:10:52;;;;;;;46.05;18.17;;;-6.00;99.90;;;;;;5133985;27;20039;-78
2022/12/14 09:13:18;;;;;;;49.33;19.42;;;-5.90;99.90;;;;;;5115348;27;20084;-76
2022/12/14 09:15:44;;;;;;;44.53;16.58;;;-5.90;99.90;;;;;;5098556;27;20398;-77
2022/12/14 09:18:09;;;;;;;41.88;15.45;;;-5.80;99.90;;;;;;5134050;27;20559;-77
2022/12/14 09:20:35;;;;;;;40.55;15.55;;;-5.80;99.90;;;;;;5115190;27;20092;-77
2022/12/14 09:23:01;;;;;;;38.28;13.88;;;-5.70;99.90;;;;;;5097532;28;20055;-77
2022/12/14 09:25:27;;;;;;;39.53;14.73;;;-5.70;99.90;;;;;;5115176;28;20051;-77
2022/12/14 09:27:53;;;;;;;42.53;14.52;;;-5.60;99.90;;;;;;5133208;28;20051;-77
2022/12/14 09:30:19;;;;;;;43.90;14.65;;;-5.60;99.90;;;;;;5115275;28;20035;-77
2022/12/14 09:32:46;;;;;;;41.58;14.20;;;-5.50;99.90;;;;;;5098934;28;20054;-78
2022/12/14 09:35:11;;;;;;;39.80;14.05;;;-5.40;99.90;;;;;;5098476;28;20066;-78
2022/12/14 09:37:37;;;;;;;38.35;13.80;;;-5.40;99.90;;;;;;5115170;28;20035;-76
2022/12/14 09:40:04;;;;;;;30.75;12.10;;;-5.30;99.90;;;;;;5098191;28;20465;-76
2022/12/14 09:43:03;;;;;;;39.38;13.50;;;-5.20;99.90;;;;;;5114941;28;20043;-76
2022/12/14 09:45:34;;;;;;;39.70;13.52;;;-5.20;99.90;;;;;;5132812;28;20067;-76
2022/12/14 09:48:14;;;;;;;44.22;14.40;;;-5.20;99.90;;;;;;5114768;28;20104;-76
2022/12/14 09:50:40;;;;;;;35.92;13.57;;;-5.10;99.90;;;;;;5082546;28;20126;-76
2022/12/14 09:53:12;;;;;;;40.08;14.82;;;-5.00;99.90;;;;;;5133369;27;20086;-76
2022/12/14 09:55:45;;;;;;;40.63;14.43;;;-4.90;99.90;;;;;;5119965;27;20398;-76
2022/12/14 09:58:31;;;;;;;39.80;13.80;;;-4.90;99.90;;;;;;5119951;27;20085;-76
2022/12/14 10:01:15;;;;;;;35.78;13.80;;;-4.90;99.90;;;;;;5102029;27;20049;-76
2022/12/14 10:04:08;;;;;;;35.05;12.05;;;-4.70;99.90;;;;;;5119002;27;20103;-75
2022/12/14 10:06:42;;;;;;;34.80;12.23;;;-4.70;99.90;;;;;;5118867;27;20145;-76
2022/12/14 10:09:14;;;;;;;30.63;12.10;;;-4.70;99.90;;;;;;5137305;27;20058;-76
2022/12/14 10:12:06;;;;;;;32.80;12.00;;;-4.60;99.90;;;;;;5137354;27;20054;-75
2022/12/14 10:14:38;;;;;;;32.72;11.90;;;-4.50;99.90;;;;;;5136978;27;20051;-75
2022/12/14 10:17:34;;;;;;;35.03;11.50;;;-4.40;99.90;;;;;;5118666;27;20089;-75
2022/12/14 10:20:11;;;;;;;37.22;12.38;;;-4.30;99.90;;;;;;5136989;27;20054;-76
2022/12/14 10:22:43;;;;;;;33.58;10.65;;;-4.30;99.90;;;;;;5118430;27;20087;-76
2022/12/14 10:25:19;;;;;;;30.05;11.10;;;-4.20;99.90;;;;;;5137424;27;20058;-76
2022/12/14 10:27:51;;;;;;;36.00;12.77;;;-4.00;99.90;;;;;;5118776;27;20054;-75
2022/12/14 10:30:20;;;;;;;38.78;11.98;;;-4.00;99.90;;;;;;5119300;27;20039;-78
2022/12/14 10:33:26;;;;;;;30.40;11.77;;;-3.90;99.90;;;;;;5101500;27;20501;-75
2022/12/14 10:35:53;;;;;;;;;;;-3.90;99.90;;;;;;5116282;27;20101;-75
2022/12/14 10:38:40;;;;;;;29.52;10.93;;;-3.80;99.90;;;;;;5101287;27;19919;-77
2022/12/14 10:41:39;;;;;;;33.08;11.57;;;-3.80;99.90;;;;;;5136905;27;20043;-75
2022/12/14 10:44:18;;;;;;;33.80;11.45;;;-3.80;99.90;;;;;;5101847;27;20467;-76
2022/12/14 10:47:09;;;;;;;37.05;12.30;;;-3.80;99.90;;;;;;5136737;27;20407;-75
2022/12/14 10:49:56;;;;;;;34.70;13.20;;;-3.80;99.90;;;;;;5118008;27;20050;-76
2022/12/14 10:52:27;;;;;;;29.58;12.02;;;-3.70;99.90;;;;;;5118182;27;20073;-75
2022/12/14 10:54:57;;;;;;;31.17;11.90;;;-3.70;99.90;;;;;;5136728;27;20050;-74
2022/12/14 10:57:25;;;;;;;32.85;12.95;;;-3.60;99.90;;;;;;5118949;27;20043;-75
2022/12/14 10:59:52;;;;;;;35.50;12.95;;;-3.50;99.90;;;;;;5136548;27;20078;-76
2022/12/14 11:02:28;;;;;;;32.72;12.32;;;-3.40;99.90;;;;;;5101400;27;20047;-75
2022/12/14 11:04:59;;;;;;;35.88;12.85;;;-3.40;99.90;;;;;;5117106;28;20104;-75
2022/12/14 11:07:31;;;;;;;33.72;13.05;;;-3.30;99.90;;;;;;5135759;27;20046;-75
2022/12/14 11:10:20;;;;;;;31.80;12.85;;;-3.30;99.90;;;;;;5136335;27;20095;-75
2022/12/14 11:13:01;;;;;;;36.65;13.20;;;-3.30;99.90;;;;;;5117702;27;20043;-76
2022/12/14 11:15:32;;;;;;;32.45;12.18;;;-3.30;99.90;;;;;;5117921;27;20047;-76
2022/12/14 11:18:03;;;;;;;32.33;11.20;;;-3.20;99.90;;;;;;5135913;27;20089;-75
2022/12/14 11:20:30;;;;;;;30.98;11.48;;;-3.20;99.90;;;;;;5135673;27;20054;-75
2022/12/14 11:23:05;;;;;;;31.33;12.32;;;-3.20;99.90;;;;;;5096952;28;20059;-76
2022/12/14 11:25:46;;;;;;;34.95;12.63;;;-3.10;99.90;;;;;;5114193;28;20086;-75
2022/12/14 11:28:29;;;;;;;39.40;14.50;;;-3.10;99.90;;;;;;5114130;28;20154;-75
2022/12/14 11:30:59;;;;;;;31.45;11.48;;;-3.10;99.90;;;;;;5114478;28;20044;-75
2022/12/14 11:33:36;;;;;;;33.97;12.70;;;-3.10;99.90;;;;;;5115011;28;20097;-76
2022/12/14 11:36:03;;;;;;;29.88;11.70;;;-3.00;99.90;;;;;;5115743;28;20062;-76
2022/12/14 11:38:29;;;;;;;31.70;12.10;;;-3.00;99.90;;;;;;5113829;28;20051;-76
2022/12/14 11:40:55;;;;;;;29.98;12.00;;;-2.90;99.90;;;;;;5096679;28;20054;-75
2022/12/14 11:43:28;;;;;;;28.05;11.23;;;-2.70;99.90;;;;;;5113496;28;20047;-75
2022/12/14 11:45:56;;;;;;;26.80;11.05;;;-2.70;99.90;;;;;;5114453;28;20139;-75
2022/12/14 11:48:25;;;;;;;27.30;10.75;;;-2.80;99.90;;;;;;5114141;28;20051;-75
2022/12/14 11:50:53;;;;;;;31.58;11.52;;;-2.80;99.90;;;;;;5114549;28;20394;-75
2022/12/14 11:53:21;;;;;;;29.33;11.68;;;-2.80;99.90;;;;;;5114427;28;20463;-74
2022/12/14 11:55:58;;;;;;;29.73;11.85;;;-2.70;99.90;;;;;;5113346;28;20071;-75
2022/12/14 11:58:29;;;;;;;29.02;11.80;;;-2.40;99.90;;;;;;5113008;28;20043;-75
2022/12/14 12:00:59;;;;;;;30.80;12.88;;;-2.40;99.90;;;;;;5114301;28;20043;-75
2022/12/14 12:03:28;;;;;;;33.53;14.45;;;;;;;;;;5113272;28;20140;-74
2022/12/14 12:06:01;;;;;;;35.40;13.13;;;-2.20;99.90;;;;;;5114915;28;20198;-75
2022/12/14 12:08:30;;;;;;;34.90;12.50;;;-2.20;99.90;;;;;;5114639;28;20043;-74
2022/12/14 12:10:59;;;;;;;28.88;11.52;;;-2.00;99.90;;;;;;5113481;28;20087;-74
2022/12/14 12:13:26;;;;;;;30.60;12.40;;;-2.00;99.90;;;;;;5095885;28;20048;-74
2022/12/14 12:15:55;;;;;;;27.33;10.38;;;-1.90;99.90;;;;;;5113749;28;20044;-74
2022/12/14 12:18:46;;;;;;;27.42;11.13;;;-2.10;99.90;;;;;;5112182;28;20122;-74
2022/12/14 12:21:34;;;;;;;32.25;12.18;;;-2.20;99.90;;;;;;5115542;27;20044;-73
2022/12/14 12:24:03;;;;;;;26.35;11.48;;;-2.20;99.90;;;;;;5107030;27;20046;-74
2022/12/14 12:26:55;;;;;;;33.63;11.73;;;-2.00;99.90;;;;;;5135240;27;20078;-73
2022/12/14 12:29:45;;;;;;;27.35;10.20;;;-2.00;99.90;;;;;;5134207;27;20055;-73
2022/12/14 12:32:36;;;;;;;29.00;11.02;;;-2.00;99.90;;;;;;5133957;27;20043;-75
2022/12/14 12:35:12;;;;;;;27.75;10.68;;;-2.10;99.90;;;;;;5134153;27;20047;-74
2022/12/14 12:37:50;;;;;;;27.95;10.40;;;-2.00;99.90;;;;;;5116626;27;20100;-75
2022/12/14 12:40:25;;;;;;;28.55;11.15;;;-1.80;99.90;;;;;;5099384;27;20151;-75
2022/12/14 12:42:56;;;;;;;29.80;10.60;;;-1.70;99.90;;;;;;5134475;27;20329;-76
2022/12/14 12:45:35;;;;;;;23.30;9.38;;;-1.60;99.90;;;;;;5115830;27;20062;-75
2022/12/14 12:48:06;;;;;;;26.58;9.98;;;-1.70;99.90;;;;;;5115407;27;20049;-76
2022/12/14 12:50:36;;;;;;;27.13;10.57;;;-1.70;99.90;;;;;;5134677;27;20079;-74
2022/12/14 12:53:16;;;;;;;28.35;10.57;;;-1.70;99.90;;;;;;5133716;27;20051;-75
2022/12/14 12:55:47;;;;;;;26.25;10.25;;;-1.70;99.90;;;;;;5133672;27;20054;-75
2022/12/14 12:58:28;;;;;;;27.15;10.15;;;-1.70;99.90;;;;;;5115511;27;20051;-75
2022/12/14 13:00:58;;;;;;;35.47;13.57;;;-1.50;99.90;;;;;;5116037;27;20039;-76
2022/12/14 13:03:37;;;;;;;30.38;11.32;;;-1.50;99.90;;;;;;5134116;27;20045;-76
2022/12/14 13:06:12;;;;;;;31.30;12.05;;;-1.60;99.90;;;;;;5115328;27;20099;-74